sensor_id;sensor_type;location;lat;lon;timestamp;P1;durP1;ratioP1;P2;durP2;ratioP2
79005;SDS011;69202;45.498;-73.582;2023-11-21T00:01:37;2.67;;;1.45;;
79005;SDS011;69202;45.498;-73.582;2023-11-21T00:04:03;2.42;;;1.40;;
79005;SDS011;69202;45.498;-73.582;2023-11-21T00:06:29;7.25;;;1.70;;
79005;SDS011;69202;45.498;-73.582;2023-11-21T00:08:55;6.57;;;1.35;;
79005;SDS011;69202;45.498;-73.582;2023-11-21T00:11:22;3.33;;;1.88;;
79005;SDS011;69202;45.498;-73.582;2023-11-21T00:13:48;7.20;;;1.50;;
79005;SDS011;69202;45.498;-73.582;2023-11-21T00:16:13;3.75;;;1.60;;
79005;SDS011;69202;45.498;-73.582;2023-11-21T00:18:39;7.32;;;1.63;;
79005;SDS011;69202;45.498;-73.582;2023-11-21T00:21:05;6.72;;;1.35;;
79005;SDS011;69202;45.498;-73.582;2023-11-21T00:23:31;2.65;;;1.23;;
79005;SDS011;69202;45.498;-73.582;2023-11-21T00:25:57;9.30;;;2.17;;
79005;SDS011;69202;45.498;-73.582;2023-11-21T00:28:24;10.93;;;1.73;;
79005;SDS011;69202;45.498;-73.582;2023-11-21T00:30:50;4.80;;;1.58;;
79005;SDS011;69202;45.498;-73.582;2023-11-21T00:33:16;3.72;;;1.52;;
79005;SDS011;69202;45.498;-73.582;2023-11-21T00:35:42;6.72;;;1.60;;
79005;SDS011;69202;45.498;-73.582;2023-11-21T00:38:08;6.47;;;1.25;;
79005;SDS011;69202;45.498;-73.582;2023-11-21T00:40:34;2.60;;;0.90;;
79005;SDS011;69202;45.498;-73.582;2023-11-21T00:42:59;4.10;;;1.27;;
79005;SDS011;69202;45.498;-73.582;2023-11-21T00:45:26;2.22;;;1.35;;
79005;SDS011;69202;45.498;-73.582;2023-11-21T00:47:52;7.07;;;1.50;;
79005;SDS011;69202;45.498;-73.582;2023-11-21T00:50:19;7.00;;;1.23;;
79005;SDS011;69202;45.498;-73.582;2023-11-21T00:52:46;4.30;;;1.20;;
79005;SDS011;69202;45.498;-73.582;2023-11-21T00:55:12;3.08;;;1.15;;
79005;SDS011;69202;45.498;-73.582;2023-11-21T00:57:38;2.38;;;1.25;;
79005;SDS011;69202;45.498;-73.582;2023-11-21T01:00:04;3.55;;;1.13;;
79005;SDS011;69202;45.498;-73.582;2023-11-21T01:02:42;2.55;;;1.08;;
79005;SDS011;69202;45.498;-73.582;2023-11-21T01:05:13;6.95;;;1.20;;
79005;SDS011;69202;45.498;-73.582;2023-11-21T01:07:39;2.08;;;1.02;;
79005;SDS011;69202;45.498;-73.582;2023-11-21T01:10:05;6.82;;;1.27;;
79005;SDS011;69202;45.498;-73.582;2023-11-21T01:12:37;2.60;;;1.20;;
79005;SDS011;69202;45.498;-73.582;2023-11-21T01:15:04;1.88;;;0.98;;
79005;SDS011;69202;45.498;-73.582;2023-11-21T01:17:33;3.97;;;1.30;;
79005;SDS011;69202;45.498;-73.582;2023-11-21T01:19:59;7.78;;;1.20;;
79005;SDS011;69202;45.498;-73.582;2023-11-21T01:22:26;1.90;;;1.23;;
79005;SDS011;69202;45.498;-73.582;2023-11-21T01:24:53;8.77;;;1.48;;
79005;SDS011;69202;45.498;-73.582;2023-11-21T01:27:19;10.45;;;1.88;;
79005;SDS011;69202;45.498;-73.582;2023-11-21T01:29:46;2.50;;;1.67;;
79005;SDS011;69202;45.498;-73.582;2023-11-21T01:32:11;5.20;;;1.55;;
79005;SDS011;69202;45.498;-73.582;2023-11-21T01:34:37;3.25;;;1.65;;
79005;SDS011;69202;45.498;-73.582;2023-11-21T01:37:04;7.50;;;1.50;;
79005;SDS011;69202;45.498;-73.582;2023-11-21T01:39:30;5.13;;;1.52;;
79005;SDS011;69202;45.498;-73.582;2023-11-21T01:41:57;2.42;;;1.23;;
79005;SDS011;69202;45.498;-73.582;2023-11-21T01:44:26;4.20;;;1.60;;
79005;SDS011;69202;45.498;-73.582;2023-11-21T01:46:52;6.30;;;1.70;;
79005;SDS011;69202;45.498;-73.582;2023-11-21T01:49:19;2.80;;;1.42;;
79005;SDS011;69202;45.498;-73.582;2023-11-21T01:51:46;6.95;;;1.67;;
79005;SDS011;69202;45.498;-73.582;2023-11-21T01:54:17;5.90;;;2.28;;
79005;SDS011;69202;45.498;-73.582;2023-11-21T01:56:47;5.47;;;1.63;;
79005;SDS011;69202;45.498;-73.582;2023-11-21T01:59:19;5.65;;;1.98;;
79005;SDS011;69202;45.498;-73.582;2023-11-21T02:01:47;4.05;;;1.83;;
79005;SDS011;69202;45.498;-73.582;2023-11-21T02:04:15;5.28;;;2.05;;
79005;SDS011;69202;45.498;-73.582;2023-11-21T02:06:41;4.22;;;1.75;;
79005;SDS011;69202;45.498;-73.582;2023-11-21T02:09:07;7.07;;;1.98;;
79005;SDS011;69202;45.498;-73.582;2023-11-21T02:11:34;3.97;;;2.00;;
79005;SDS011;69202;45.498;-73.582;2023-11-21T02:14:00;3.80;;;1.80;;
79005;SDS011;69202;45.498;-73.582;2023-11-21T02:16:26;4.43;;;2.10;;
79005;SDS011;69202;45.498;-73.582;2023-11-21T02:18:56;5.00;;;2.42;;
79005;SDS011;69202;45.498;-73.582;2023-11-21T02:21:24;6.70;;;2.63;;
79005;SDS011;69202;45.498;-73.582;2023-11-21T02:23:50;9.82;;;2.20;;
79005;SDS011;69202;45.498;-73.582;2023-11-21T02:26:16;6.50;;;2.08;;
79005;SDS011;69202;45.498;-73.582;2023-11-21T02:28:42;5.65;;;2.17;;
79005;SDS011;69202;45.498;-73.582;2023-11-21T02:31:08;9.73;;;2.00;;
79005;SDS011;69202;45.498;-73.582;2023-11-21T02:33:34;6.82;;;1.90;;
79005;SDS011;69202;45.498;-73.582;2023-11-21T02:36:00;8.18;;;2.10;;
79005;SDS011;69202;45.498;-73.582;2023-11-21T02:38:27;6.82;;;2.08;;
79005;SDS011;69202;45.498;-73.582;2023-11-21T02:40:53;10.68;;;2.17;;
79005;SDS011;69202;45.498;-73.582;2023-11-21T02:43:19;3.25;;;1.70;;
79005;SDS011;69202;45.498;-73.582;2023-11-21T02:45:45;5.32;;;1.52;;
79005;SDS011;69202;45.498;-73.582;2023-11-21T02:48:11;5.07;;;2.10;;
79005;SDS011;69202;45.498;-73.582;2023-11-21T02:50:37;4.95;;;1.95;;
79005;SDS011;69202;45.498;-73.582;2023-11-21T02:53:03;4.78;;;1.80;;
79005;SDS011;69202;45.498;-73.582;2023-11-21T02:55:31;2.90;;;1.80;;
79005;SDS011;69202;45.498;-73.582;2023-11-21T02:58:00;4.18;;;1.90;;
79005;SDS011;69202;45.498;-73.582;2023-11-21T03:00:26;6.03;;;2.22;;
79005;SDS011;69202;45.498;-73.582;2023-11-21T03:02:55;3.80;;;2.13;;
79005;SDS011;69202;45.498;-73.582;2023-11-21T03:05:21;9.38;;;2.55;;
79005;SDS011;69202;45.498;-73.582;2023-11-21T03:07:47;5.80;;;2.17;;
79005;SDS011;69202;45.498;-73.582;2023-11-21T03:10:13;8.50;;;2.22;;
79005;SDS011;69202;45.498;-73.582;2023-11-21T03:12:39;10.18;;;2.03;;
79005;SDS011;69202;45.498;-73.582;2023-11-21T03:15:06;11.18;;;2.75;;
79005;SDS011;69202;45.498;-73.582;2023-11-21T03:17:33;5.70;;;2.60;;
79005;SDS011;69202;45.498;-73.582;2023-11-21T03:20:02;9.63;;;2.58;;
79005;SDS011;69202;45.498;-73.582;2023-11-21T03:22:29;8.85;;;2.50;;
79005;SDS011;69202;45.498;-73.582;2023-11-21T03:24:55;6.28;;;2.78;;
79005;SDS011;69202;45.498;-73.582;2023-11-21T03:27:21;10.57;;;3.58;;
79005;SDS011;69202;45.498;-73.582;2023-11-21T03:29:47;5.15;;;2.17;;
79005;SDS011;69202;45.498;-73.582;2023-11-21T03:32:14;5.57;;;2.30;;
79005;SDS011;69202;45.498;-73.582;2023-11-21T03:34:53;4.38;;;2.33;;
79005;SDS011;69202;45.498;-73.582;2023-11-21T03:37:21;7.65;;;2.60;;
79005;SDS011;69202;45.498;-73.582;2023-11-21T03:39:47;5.28;;;2.33;;
79005;SDS011;69202;45.498;-73.582;2023-11-21T03:42:13;8.55;;;2.97;;
79005;SDS011;69202;45.498;-73.582;2023-11-21T03:44:39;8.80;;;2.25;;
79005;SDS011;69202;45.498;-73.582;2023-11-21T03:47:05;4.90;;;2.10;;
79005;SDS011;69202;45.498;-73.582;2023-11-21T03:49:31;6.40;;;2.47;;
79005;SDS011;69202;45.498;-73.582;2023-11-21T03:51:57;5.78;;;2.72;;
79005;SDS011;69202;45.498;-73.582;2023-11-21T03:54:22;7.75;;;2.67;;
79005;SDS011;69202;45.498;-73.582;2023-11-21T03:56:48;4.70;;;2.40;;
79005;SDS011;69202;45.498;-73.582;2023-11-21T03:59:14;8.15;;;2.70;;
79005;SDS011;69202;45.498;-73.582;2023-11-21T04:01:40;12.07;;;2.75;;
79005;SDS011;69202;45.498;-73.582;2023-11-21T04:04:06;6.70;;;2.47;;
79005;SDS011;69202;45.498;-73.582;2023-11-21T04:06:33;9.05;;;2.83;;
79005;SDS011;69202;45.498;-73.582;2023-11-21T04:09:01;5.10;;;1.98;;
79005;SDS011;69202;45.498;-73.582;2023-11-21T04:11:29;5.13;;;2.33;;
79005;SDS011;69202;45.498;-73.582;2023-11-21T04:13:55;9.40;;;2.15;;
79005;SDS011;69202;45.498;-73.582;2023-11-21T04:16:21;6.53;;;2.30;;
79005;SDS011;69202;45.498;-73.582;2023-11-21T04:18:47;6.18;;;2.17;;
79005;SDS011;69202;45.498;-73.582;2023-11-21T04:21:13;10.43;;;2.40;;
79005;SDS011;69202;45.498;-73.582;2023-11-21T04:23:39;13.48;;;2.53;;
79005;SDS011;69202;45.498;-73.582;2023-11-21T04:26:05;8.57;;;2.38;;
79005;SDS011;69202;45.498;-73.582;2023-11-21T04:28:31;4.30;;;1.88;;
79005;SDS011;69202;45.498;-73.582;2023-11-21T04:30:57;5.97;;;2.70;;
79005;SDS011;69202;45.498;-73.582;2023-11-21T04:33:23;4.07;;;1.90;;
79005;SDS011;69202;45.498;-73.582;2023-11-21T04:35:50;7.75;;;2.67;;
79005;SDS011;69202;45.498;-73.582;2023-11-21T04:38:16;6.22;;;2.25;;
79005;SDS011;69202;45.498;-73.582;2023-11-21T04:40:43;5.22;;;2.28;;
79005;SDS011;69202;45.498;-73.582;2023-11-21T04:43:09;6.05;;;2.53;;
79005;SDS011;69202;45.498;-73.582;2023-11-21T04:45:35;5.95;;;2.08;;
79005;SDS011;69202;45.498;-73.582;2023-11-21T04:48:01;7.97;;;3.15;;
79005;SDS011;69202;45.498;-73.582;2023-11-21T04:50:27;9.50;;;2.95;;
79005;SDS011;69202;45.498;-73.582;2023-11-21T04:52:53;9.20;;;2.50;;
79005;SDS011;69202;45.498;-73.582;2023-11-21T04:55:19;4.90;;;2.17;;
79005;SDS011;69202;45.498;-73.582;2023-11-21T04:57:45;5.10;;;2.20;;
79005;SDS011;69202;45.498;-73.582;2023-11-21T05:00:12;12.55;;;3.22;;
79005;SDS011;69202;45.498;-73.582;2023-11-21T05:02:39;6.15;;;2.58;;
79005;SDS011;69202;45.498;-73.582;2023-11-21T05:05:06;8.80;;;3.72;;
79005;SDS011;69202;45.498;-73.582;2023-11-21T05:07:35;5.85;;;2.58;;
79005;SDS011;69202;45.498;-73.582;2023-11-21T05:10:03;6.75;;;2.80;;
79005;SDS011;69202;45.498;-73.582;2023-11-21T05:12:37;8.70;;;2.90;;
79005;SDS011;69202;45.498;-73.582;2023-11-21T05:15:03;8.75;;;2.65;;
79005;SDS011;69202;45.498;-73.582;2023-11-21T05:17:35;11.05;;;2.95;;
79005;SDS011;69202;45.498;-73.582;2023-11-21T05:20:02;11.48;;;3.10;;
79005;SDS011;69202;45.498;-73.582;2023-11-21T05:22:29;4.78;;;2.60;;
79005;SDS011;69202;45.498;-73.582;2023-11-21T05:24:55;6.80;;;2.90;;
79005;SDS011;69202;45.498;-73.582;2023-11-21T05:27:21;12.68;;;3.40;;
79005;SDS011;69202;45.498;-73.582;2023-11-21T05:29:47;14.32;;;3.20;;
79005;SDS011;69202;45.498;-73.582;2023-11-21T05:32:13;7.30;;;2.80;;
79005;SDS011;69202;45.498;-73.582;2023-11-21T05:34:39;8.02;;;1.95;;
79005;SDS011;69202;45.498;-73.582;2023-11-21T05:37:05;7.10;;;2.50;;
79005;SDS011;69202;45.498;-73.582;2023-11-21T05:39:31;5.82;;;2.20;;
79005;SDS011;69202;45.498;-73.582;2023-11-21T05:41:57;6.20;;;2.30;;
79005;SDS011;69202;45.498;-73.582;2023-11-21T05:44:25;7.55;;;2.30;;
79005;SDS011;69202;45.498;-73.582;2023-11-21T05:46:51;5.13;;;2.10;;
79005;SDS011;69202;45.498;-73.582;2023-11-21T05:49:17;8.25;;;2.45;;
79005;SDS011;69202;45.498;-73.582;2023-11-21T05:51:47;5.75;;;2.33;;
79005;SDS011;69202;45.498;-73.582;2023-11-21T05:54:13;6.18;;;2.15;;
79005;SDS011;69202;45.498;-73.582;2023-11-21T05:56:39;4.18;;;2.20;;
79005;SDS011;69202;45.498;-73.582;2023-11-21T05:59:05;9.82;;;2.03;;
79005;SDS011;69202;45.498;-73.582;2023-11-21T06:01:31;5.53;;;2.20;;
79005;SDS011;69202;45.498;-73.582;2023-11-21T06:03:57;4.68;;;1.98;;
79005;SDS011;69202;45.498;-73.582;2023-11-21T06:06:24;5.82;;;2.15;;
79005;SDS011;69202;45.498;-73.582;2023-11-21T06:08:50;5.57;;;2.08;;
79005;SDS011;69202;45.498;-73.582;2023-11-21T06:11:17;9.85;;;2.50;;
79005;SDS011;69202;45.498;-73.582;2023-11-21T06:13:43;7.20;;;2.25;;
79005;SDS011;69202;45.498;-73.582;2023-11-21T06:16:09;5.63;;;2.40;;
79005;SDS011;69202;45.498;-73.582;2023-11-21T06:18:35;4.72;;;2.30;;
79005;SDS011;69202;45.498;-73.582;2023-11-21T06:21:01;7.63;;;2.53;;
79005;SDS011;69202;45.498;-73.582;2023-11-21T06:23:27;6.03;;;2.20;;
79005;SDS011;69202;45.498;-73.582;2023-11-21T06:25:53;4.25;;;2.10;;
79005;SDS011;69202;45.498;-73.582;2023-11-21T06:28:19;5.40;;;2.70;;
79005;SDS011;69202;45.498;-73.582;2023-11-21T06:30:45;6.20;;;2.75;;
79005;SDS011;69202;45.498;-73.582;2023-11-21T06:33:11;6.57;;;2.42;;
79005;SDS011;69202;45.498;-73.582;2023-11-21T06:35:37;10.35;;;3.00;;
79005;SDS011;69202;45.498;-73.582;2023-11-21T06:38:02;5.97;;;2.38;;
79005;SDS011;69202;45.498;-73.582;2023-11-21T06:40:28;4.63;;;2.78;;
79005;SDS011;69202;45.498;-73.582;2023-11-21T06:42:54;4.22;;;2.45;;
79005;SDS011;69202;45.498;-73.582;2023-11-21T06:45:20;13.02;;;3.53;;
79005;SDS011;69202;45.498;-73.582;2023-11-21T06:47:46;8.50;;;3.13;;
79005;SDS011;69202;45.498;-73.582;2023-11-21T06:50:13;7.43;;;3.00;;
79005;SDS011;69202;45.498;-73.582;2023-11-21T06:52:39;6.68;;;2.55;;
79005;SDS011;69202;45.498;-73.582;2023-11-21T06:55:05;4.53;;;2.58;;
79005;SDS011;69202;45.498;-73.582;2023-11-21T06:57:33;7.95;;;3.20;;
79005;SDS011;69202;45.498;-73.582;2023-11-21T07:00:00;11.07;;;3.28;;
79005;SDS011;69202;45.498;-73.582;2023-11-21T07:02:28;5.35;;;2.55;;
79005;SDS011;69202;45.498;-73.582;2023-11-21T07:04:54;8.93;;;3.35;;
79005;SDS011;69202;45.498;-73.582;2023-11-21T07:07:20;7.55;;;3.53;;
79005;SDS011;69202;45.498;-73.582;2023-11-21T07:09:46;8.68;;;3.25;;
79005;SDS011;69202;45.498;-73.582;2023-11-21T07:12:14;9.90;;;3.33;;
79005;SDS011;69202;45.498;-73.582;2023-11-21T07:14:40;10.23;;;4.13;;
79005;SDS011;69202;45.498;-73.582;2023-11-21T07:17:08;17.08;;;3.70;;
79005;SDS011;69202;45.498;-73.582;2023-11-21T07:19:34;7.78;;;3.50;;
79005;SDS011;69202;45.498;-73.582;2023-11-21T07:22:01;8.70;;;3.47;;
79005;SDS011;69202;45.498;-73.582;2023-11-21T07:24:27;9.60;;;3.58;;
79005;SDS011;69202;45.498;-73.582;2023-11-21T07:26:52;13.70;;;4.22;;
79005;SDS011;69202;45.498;-73.582;2023-11-21T07:29:22;6.72;;;3.63;;
79005;SDS011;69202;45.498;-73.582;2023-11-21T07:31:51;6.93;;;3.53;;
79005;SDS011;69202;45.498;-73.582;2023-11-21T07:34:19;10.43;;;3.50;;
79005;SDS011;69202;45.498;-73.582;2023-11-21T07:36:46;8.82;;;3.75;;
79005;SDS011;69202;45.498;-73.582;2023-11-21T07:39:12;8.27;;;3.70;;
79005;SDS011;69202;45.498;-73.582;2023-11-21T07:41:40;11.23;;;3.83;;
79005;SDS011;69202;45.498;-73.582;2023-11-21T07:44:13;10.55;;;4.38;;
79005;SDS011;69202;45.498;-73.582;2023-11-21T07:46:40;10.50;;;4.55;;
79005;SDS011;69202;45.498;-73.582;2023-11-21T07:49:06;9.80;;;4.20;;
79005;SDS011;69202;45.498;-73.582;2023-11-21T07:51:32;9.50;;;4.07;;
79005;SDS011;69202;45.498;-73.582;2023-11-21T07:53:58;9.52;;;4.07;;
79005;SDS011;69202;45.498;-73.582;2023-11-21T07:56:24;13.48;;;4.18;;
79005;SDS011;69202;45.498;-73.582;2023-11-21T07:58:52;9.38;;;4.20;;
79005;SDS011;69202;45.498;-73.582;2023-11-21T08:01:18;7.55;;;4.35;;
79005;SDS011;69202;45.498;-73.582;2023-11-21T08:03:44;9.63;;;4.20;;
79005;SDS011;69202;45.498;-73.582;2023-11-21T08:06:10;7.78;;;3.92;;
79005;SDS011;69202;45.498;-73.582;2023-11-21T08:08:37;12.48;;;4.55;;
79005;SDS011;69202;45.498;-73.582;2023-11-21T08:11:03;13.88;;;4.53;;
79005;SDS011;69202;45.498;-73.582;2023-11-21T08:13:29;10.43;;;3.72;;
79005;SDS011;69202;45.498;-73.582;2023-11-21T08:15:56;11.77;;;4.20;;
79005;SDS011;69202;45.498;-73.582;2023-11-21T08:18:26;11.95;;;4.88;;
79005;SDS011;69202;45.498;-73.582;2023-11-21T08:20:54;7.70;;;4.43;;
79005;SDS011;69202;45.498;-73.582;2023-11-21T08:23:20;12.88;;;4.40;;
79005;SDS011;69202;45.498;-73.582;2023-11-21T08:25:50;12.82;;;4.40;;
79005;SDS011;69202;45.498;-73.582;2023-11-21T08:28:16;12.85;;;4.22;;
79005;SDS011;69202;45.498;-73.582;2023-11-21T08:30:42;9.55;;;4.55;;
79005;SDS011;69202;45.498;-73.582;2023-11-21T08:33:09;9.15;;;4.47;;
79005;SDS011;69202;45.498;-73.582;2023-11-21T08:35:36;8.43;;;4.63;;
79005;SDS011;69202;45.498;-73.582;2023-11-21T08:38:03;11.88;;;4.65;;
79005;SDS011;69202;45.498;-73.582;2023-11-21T08:40:29;8.38;;;4.25;;
79005;SDS011;69202;45.498;-73.582;2023-11-21T08:42:55;14.55;;;4.78;;
79005;SDS011;69202;45.498;-73.582;2023-11-21T08:45:24;12.30;;;4.50;;
79005;SDS011;69202;45.498;-73.582;2023-11-21T08:47:51;11.18;;;5.07;;
79005;SDS011;69202;45.498;-73.582;2023-11-21T08:50:17;13.70;;;4.53;;
79005;SDS011;69202;45.498;-73.582;2023-11-21T08:52:44;9.80;;;4.25;;
79005;SDS011;69202;45.498;-73.582;2023-11-21T08:55:13;10.80;;;5.05;;
79005;SDS011;69202;45.498;-73.582;2023-11-21T08:57:40;8.85;;;4.15;;
79005;SDS011;69202;45.498;-73.582;2023-11-21T09:00:08;14.00;;;4.78;;
79005;SDS011;69202;45.498;-73.582;2023-11-21T09:02:38;11.75;;;4.35;;
79005;SDS011;69202;45.498;-73.582;2023-11-21T09:05:10;12.60;;;4.55;;
79005;SDS011;69202;45.498;-73.582;2023-11-21T09:07:36;12.30;;;5.50;;
79005;SDS011;69202;45.498;-73.582;2023-11-21T09:10:04;13.27;;;4.57;;
79005;SDS011;69202;45.498;-73.582;2023-11-21T09:12:33;13.07;;;4.68;;
79005;SDS011;69202;45.498;-73.582;2023-11-21T09:15:03;11.70;;;5.03;;
79005;SDS011;69202;45.498;-73.582;2023-11-21T09:17:34;18.13;;;5.20;;
79005;SDS011;69202;45.498;-73.582;2023-11-21T09:20:01;12.05;;;4.90;;
79005;SDS011;69202;45.498;-73.582;2023-11-21T09:22:30;9.00;;;5.07;;
79005;SDS011;69202;45.498;-73.582;2023-11-21T09:24:57;15.77;;;5.43;;
79005;SDS011;69202;45.498;-73.582;2023-11-21T09:27:23;7.32;;;4.68;;
79005;SDS011;69202;45.498;-73.582;2023-11-21T09:29:50;13.68;;;5.30;;
79005;SDS011;69202;45.498;-73.582;2023-11-21T09:32:18;15.40;;;4.82;;
79005;SDS011;69202;45.498;-73.582;2023-11-21T09:34:44;12.35;;;5.18;;
79005;SDS011;69202;45.498;-73.582;2023-11-21T09:37:10;11.25;;;5.53;;
79005;SDS011;69202;45.498;-73.582;2023-11-21T09:39:36;9.70;;;4.97;;
79005;SDS011;69202;45.498;-73.582;2023-11-21T09:42:05;12.65;;;4.85;;
79005;SDS011;69202;45.498;-73.582;2023-11-21T09:44:45;11.10;;;5.50;;
79005;SDS011;69202;45.498;-73.582;2023-11-21T09:47:14;7.95;;;4.45;;
79005;SDS011;69202;45.498;-73.582;2023-11-21T09:49:42;11.10;;;5.38;;
79005;SDS011;69202;45.498;-73.582;2023-11-21T09:52:32;19.48;;;4.93;;
79005;SDS011;69202;45.498;-73.582;2023-11-21T09:55:05;11.43;;;5.45;;
79005;SDS011;69202;45.498;-73.582;2023-11-21T09:57:31;8.23;;;4.50;;
79005;SDS011;69202;45.498;-73.582;2023-11-21T09:59:58;9.70;;;4.90;;
79005;SDS011;69202;45.498;-73.582;2023-11-21T10:02:30;11.18;;;5.57;;
79005;SDS011;69202;45.498;-73.582;2023-11-21T10:05:02;13.07;;;5.35;;
79005;SDS011;69202;45.498;-73.582;2023-11-21T10:07:28;17.75;;;5.50;;
79005;SDS011;69202;45.498;-73.582;2023-11-21T10:09:57;15.43;;;5.57;;
79005;SDS011;69202;45.498;-73.582;2023-11-21T10:12:26;11.80;;;4.95;;
79005;SDS011;69202;45.498;-73.582;2023-11-21T10:14:53;10.75;;;5.18;;
79005;SDS011;69202;45.498;-73.582;2023-11-21T10:17:23;10.63;;;5.18;;
79005;SDS011;69202;45.498;-73.582;2023-11-21T10:19:56;11.40;;;5.13;;
79005;SDS011;69202;45.498;-73.582;2023-11-21T10:22:22;6.25;;;2.45;;
79005;SDS011;69202;45.498;-73.582;2023-11-21T10:24:49;17.02;;;5.28;;
79005;SDS011;69202;45.498;-73.582;2023-11-21T10:27:15;7.50;;;4.90;;
79005;SDS011;69202;45.498;-73.582;2023-11-21T10:29:41;11.82;;;6.05;;
79005;SDS011;69202;45.498;-73.582;2023-11-21T10:32:07;13.13;;;5.63;;
79005;SDS011;69202;45.498;-73.582;2023-11-21T10:34:33;9.75;;;5.72;;
79005;SDS011;69202;45.498;-73.582;2023-11-21T10:37:07;12.48;;;5.70;;
79005;SDS011;69202;45.498;-73.582;2023-11-21T10:39:36;10.40;;;5.68;;
79005;SDS011;69202;45.498;-73.582;2023-11-21T10:42:04;12.00;;;6.10;;
79005;SDS011;69202;45.498;-73.582;2023-11-21T10:44:31;15.20;;;5.65;;
79005;SDS011;69202;45.498;-73.582;2023-11-21T10:46:57;12.30;;;5.95;;
79005;SDS011;69202;45.498;-73.582;2023-11-21T10:49:26;11.35;;;5.90;;
79005;SDS011;69202;45.498;-73.582;2023-11-21T10:51:55;10.88;;;6.22;;
79005;SDS011;69202;45.498;-73.582;2023-11-21T10:54:22;11.85;;;6.35;;
79005;SDS011;69202;45.498;-73.582;2023-11-21T10:56:52;11.65;;;5.88;;
79005;SDS011;69202;45.498;-73.582;2023-11-21T10:59:22;14.13;;;6.15;;
79005;SDS011;69202;45.498;-73.582;2023-11-21T11:01:50;18.13;;;6.63;;
79005;SDS011;69202;45.498;-73.582;2023-11-21T11:04:18;13.07;;;5.82;;
79005;SDS011;69202;45.498;-73.582;2023-11-21T11:06:54;10.60;;;6.00;;
79005;SDS011;69202;45.498;-73.582;2023-11-21T11:09:23;14.27;;;6.13;;
79005;SDS011;69202;45.498;-73.582;2023-11-21T11:11:50;11.80;;;5.93;;
79005;SDS011;69202;45.498;-73.582;2023-11-21T11:14:18;11.38;;;5.40;;
79005;SDS011;69202;45.498;-73.582;2023-11-21T11:16:45;14.23;;;6.15;;
79005;SDS011;69202;45.498;-73.582;2023-11-21T11:19:11;11.23;;;5.40;;
79005;SDS011;69202;45.498;-73.582;2023-11-21T11:27:01;10.82;;;5.90;;
79005;SDS011;69202;45.498;-73.582;2023-11-21T11:29:44;11.80;;;5.45;;
79005;SDS011;69202;45.498;-73.582;2023-11-21T11:32:28;13.35;;;5.25;;
79005;SDS011;69202;45.498;-73.582;2023-11-21T11:38:21;11.52;;;5.30;;
79005;SDS011;69202;45.498;-73.582;2023-11-21T11:40:52;10.93;;;5.50;;
79005;SDS011;69202;45.498;-73.582;2023-11-21T11:43:26;13.30;;;6.13;;
79005;SDS011;69202;45.498;-73.582;2023-11-21T11:45:55;12.55;;;5.63;;
79005;SDS011;69202;45.498;-73.582;2023-11-21T11:48:21;11.07;;;5.68;;
79005;SDS011;69202;45.498;-73.582;2023-11-21T11:51:01;9.02;;;5.47;;
79005;SDS011;69202;45.498;-73.582;2023-11-21T11:53:40;15.63;;;6.60;;
79005;SDS011;69202;45.498;-73.582;2023-11-21T11:58:55;9.57;;;5.40;;
79005;SDS011;69202;45.498;-73.582;2023-11-21T12:01:22;9.88;;;5.68;;
79005;SDS011;69202;45.498;-73.582;2023-11-21T12:06:42;10.10;;;5.30;;
79005;SDS011;69202;45.498;-73.582;2023-11-21T12:09:17;9.40;;;4.97;;
79005;SDS011;69202;45.498;-73.582;2023-11-21T12:11:44;18.70;;;5.90;;
79005;SDS011;69202;45.498;-73.582;2023-11-21T12:14:12;24.35;;;6.38;;
79005;SDS011;69202;45.498;-73.582;2023-11-21T12:16:39;16.27;;;5.65;;
79005;SDS011;69202;45.498;-73.582;2023-11-21T12:19:05;11.13;;;5.63;;
79005;SDS011;69202;45.498;-73.582;2023-11-21T12:21:31;11.77;;;5.13;;
79005;SDS011;69202;45.498;-73.582;2023-11-21T12:23:58;14.35;;;6.40;;
79005;SDS011;69202;45.498;-73.582;2023-11-21T12:26:24;13.27;;;5.90;;
79005;SDS011;69202;45.498;-73.582;2023-11-21T12:28:53;15.15;;;5.90;;
79005;SDS011;69202;45.498;-73.582;2023-11-21T12:31:22;14.07;;;5.30;;
79005;SDS011;69202;45.498;-73.582;2023-11-21T12:33:48;19.67;;;5.32;;
79005;SDS011;69202;45.498;-73.582;2023-11-21T12:36:15;9.52;;;4.60;;
79005;SDS011;69202;45.498;-73.582;2023-11-21T12:38:41;13.95;;;5.10;;
79005;SDS011;69202;45.498;-73.582;2023-11-21T12:41:09;14.05;;;4.72;;
79005;SDS011;69202;45.498;-73.582;2023-11-21T12:43:38;12.70;;;4.97;;
79005;SDS011;69202;45.498;-73.582;2023-11-21T12:46:08;8.75;;;4.85;;
79005;SDS011;69202;45.498;-73.582;2023-11-21T12:48:38;10.70;;;4.78;;
79005;SDS011;69202;45.498;-73.582;2023-11-21T12:51:09;12.55;;;5.15;;
79005;SDS011;69202;45.498;-73.582;2023-11-21T12:53:37;7.45;;;3.88;;
79005;SDS011;69202;45.498;-73.582;2023-11-21T12:56:09;7.35;;;3.72;;
79005;SDS011;69202;45.498;-73.582;2023-11-21T12:58:36;13.05;;;4.28;;
79005;SDS011;69202;45.498;-73.582;2023-11-21T13:01:07;10.80;;;3.20;;
79005;SDS011;69202;45.498;-73.582;2023-11-21T13:03:45;9.82;;;3.65;;
79005;SDS011;69202;45.498;-73.582;2023-11-21T13:06:14;8.52;;;3.97;;
79005;SDS011;69202;45.498;-73.582;2023-11-21T13:08:41;7.53;;;3.00;;
79005;SDS011;69202;45.498;-73.582;2023-11-21T13:11:10;14.18;;;3.63;;
79005;SDS011;69202;45.498;-73.582;2023-11-21T13:13:36;11.38;;;3.45;;
79005;SDS011;69202;45.498;-73.582;2023-11-21T13:16:06;12.38;;;3.17;;
79005;SDS011;69202;45.498;-73.582;2023-11-21T13:18:33;9.43;;;3.30;;
79005;SDS011;69202;45.498;-73.582;2023-11-21T13:21:00;7.63;;;3.10;;
79005;SDS011;69202;45.498;-73.582;2023-11-21T13:23:36;9.40;;;3.55;;
79005;SDS011;69202;45.498;-73.582;2023-11-21T13:26:03;10.73;;;3.90;;
79005;SDS011;69202;45.498;-73.582;2023-11-21T13:28:30;8.75;;;3.75;;
79005;SDS011;69202;45.498;-73.582;2023-11-21T13:30:59;7.43;;;3.17;;
79005;SDS011;69202;45.498;-73.582;2023-11-21T13:33:46;6.07;;;3.35;;
79005;SDS011;69202;45.498;-73.582;2023-11-21T13:36:21;8.82;;;3.15;;
79005;SDS011;69202;45.498;-73.582;2023-11-21T13:38:51;10.40;;;3.08;;
79005;SDS011;69202;45.498;-73.582;2023-11-21T13:41:20;7.28;;;2.60;;
79005;SDS011;69202;45.498;-73.582;2023-11-21T13:43:53;8.93;;;3.13;;
79005;SDS011;69202;45.498;-73.582;2023-11-21T13:46:28;6.45;;;2.72;;
79005;SDS011;69202;45.498;-73.582;2023-11-21T13:48:59;7.75;;;2.97;;
79005;SDS011;69202;45.498;-73.582;2023-11-21T13:51:26;10.82;;;3.58;;
79005;SDS011;69202;45.498;-73.582;2023-11-21T13:54:09;9.48;;;2.97;;
79005;SDS011;69202;45.498;-73.582;2023-11-21T13:56:36;9.57;;;3.33;;
79005;SDS011;69202;45.498;-73.582;2023-11-21T13:59:04;6.63;;;3.25;;
79005;SDS011;69202;45.498;-73.582;2023-11-21T14:01:42;9.30;;;3.88;;
79005;SDS011;69202;45.498;-73.582;2023-11-21T14:04:20;5.72;;;3.05;;
79005;SDS011;69202;45.498;-73.582;2023-11-21T14:07:00;7.50;;;3.03;;
79005;SDS011;69202;45.498;-73.582;2023-11-21T14:09:39;7.18;;;3.25;;
79005;SDS011;69202;45.498;-73.582;2023-11-21T14:12:08;12.25;;;3.70;;
79005;SDS011;69202;45.498;-73.582;2023-11-21T14:14:35;7.70;;;3.30;;
79005;SDS011;69202;45.498;-73.582;2023-11-21T14:17:01;9.45;;;2.95;;
79005;SDS011;69202;45.498;-73.582;2023-11-21T14:19:31;9.30;;;3.08;;
79005;SDS011;69202;45.498;-73.582;2023-11-21T14:21:58;9.77;;;2.70;;
79005;SDS011;69202;45.498;-73.582;2023-11-21T14:24:25;9.20;;;2.90;;
79005;SDS011;69202;45.498;-73.582;2023-11-21T14:26:51;6.63;;;3.03;;
79005;SDS011;69202;45.498;-73.582;2023-11-21T14:29:17;7.63;;;2.97;;
79005;SDS011;69202;45.498;-73.582;2023-11-21T14:31:48;7.47;;;2.80;;
79005;SDS011;69202;45.498;-73.582;2023-11-21T14:34:16;6.30;;;3.25;;